createdAt,value
2022-09-05T00:05:55.465Z,19.21
2022-09-05T00:11:42.487Z,19.20
2022-09-05T00:17:27.803Z,19.10
2022-09-05T00:24:26.251Z,19.13
2022-09-05T00:28:52.082Z,19.13
2022-09-05T00:31:55.559Z,19.07
2022-09-05T00:37:52.605Z,18.95
2022-09-05T00:43:33.859Z,18.97
2022-09-05T00:52:10.605Z,18.83
2022-09-05T00:55:14.282Z,18.81
2022-09-05T00:58:09.537Z,18.75
2022-09-05T01:00:59.435Z,18.65
2022-09-05T01:03:57.959Z,18.61
2022-09-05T01:06:57.164Z,18.56
2022-09-05T01:12:53.134Z,18.48
2022-09-05T01:15:44.537Z,18.54
2022-09-05T01:21:52.049Z,18.47
2022-09-05T01:29:13.020Z,18.41
2022-09-05T01:30:51.971Z,18.36
2022-09-05T01:36:41.928Z,18.42
2022-09-05T01:42:31.715Z,18.30
2022-09-05T01:48:13.635Z,18.36
2022-09-05T01:53:56.390Z,18.24
2022-09-05T01:59:40.359Z,18.02
2022-09-05T02:05:47.277Z,18.23
2022-09-05T02:11:11.732Z,17.98
2022-09-05T02:16:50.798Z,18.11
2022-09-05T02:22:32.935Z,18.05
2022-09-05T02:28:06.303Z,17.95
2022-09-05T02:33:47.859Z,17.88
2022-09-05T02:36:41.429Z,17.78
2022-09-05T02:45:18.802Z,17.92
2022-09-05T02:48:15.594Z,17.90
2022-09-05T02:57:34.405Z,18.08
2022-09-05T02:59:59.723Z,18.09
2022-09-05T03:12:29.627Z,17.88
2022-09-05T03:19:23.846Z,17.78
2022-09-05T03:22:37.140Z,17.79
2022-09-05T03:32:44.610Z,17.77
2022-09-05T03:36:13.159Z,17.73
2022-09-05T03:42:29.112Z,17.56
2022-09-05T03:45:39.759Z,17.44
2022-09-05T03:48:37.852Z,17.28
2022-09-05T03:57:16.514Z,17.36
2022-09-05T03:58:28.114Z,17.19
2022-09-05T04:08:13.808Z,17.35
2022-09-05T04:08:24.461Z,17.33
2022-09-05T04:12:42.684Z,17.35
2022-09-05T04:18:32.675Z,17.38
2022-09-05T04:24:08.697Z,17.39
2022-09-05T04:27:40.022Z,17.34
2022-09-05T04:30:49.689Z,17.36
2022-09-05T04:36:24.565Z,17.32
2022-09-05T04:39:28.374Z,17.28
2022-09-05T04:45:17.491Z,17.35
2022-09-05T04:48:08.298Z,17.34
2022-09-05T04:51:11.634Z,17.40
2022-09-05T04:54:05.369Z,17.37
2022-09-05T05:01:47.359Z,17.37
2022-09-05T05:17:38.295Z,17.41
2022-09-05T05:23:07.947Z,17.32
2022-09-05T05:28:53.500Z,17.52
2022-09-05T05:31:45.015Z,17.52
2022-09-05T05:34:35.602Z,17.66
2022-09-05T05:43:16.820Z,17.76
2022-09-05T05:48:56.990Z,17.83
2022-09-05T05:54:34.984Z,18.07
2022-09-05T06:01:40.888Z,18.11
2022-09-05T06:04:45.200Z,18.11
2022-09-05T06:14:51.207Z,18.07
2022-09-05T06:17:38.165Z,18.01
2022-09-05T06:24:43.003Z,17.83
2022-09-05T06:28:01.469Z,17.90
2022-09-05T06:33:52.884Z,18.22
2022-09-05T06:36:51.376Z,18.30
2022-09-05T06:39:51.885Z,18.40
2022-09-05T06:45:49.531Z,18.77
2022-09-05T06:52:17.915Z,19.14
2022-09-05T06:58:10.872Z,19.76
2022-09-05T07:03:59.057Z,20.86
2022-09-05T07:10:22.022Z,22.67
2022-09-05T07:15:44.398Z,23.57
2022-09-05T07:21:26.356Z,23.31
2022-09-05T07:27:05.087Z,22.89
2022-09-05T07:30:01.705Z,22.75
2022-09-05T07:35:42.177Z,22.67
2022-09-05T07:38:45.600Z,22.56
2022-09-05T07:44:11.190Z,22.64
2022-09-05T07:50:42.883Z,23.21
2022-09-05T07:58:43.961Z,23.90
2022-09-05T08:04:27.869Z,24.33
2022-09-05T08:10:10.458Z,24.38
2022-09-05T08:16:13.544Z,25.14
2022-09-05T08:21:31.131Z,25.52
2022-09-05T08:24:23.873Z,25.08
2022-09-05T08:27:16.424Z,25.08
2022-09-05T08:30:25.574Z,25.04
2022-09-05T08:35:46.666Z,24.53
2022-09-05T08:41:51.137Z,24.21
2022-09-05T08:46:40.241Z,24.03
2022-09-05T08:50:28.953Z,23.74
2022-09-05T08:56:13.206Z,23.48
2022-09-05T09:02:45.056Z,23.47
2022-09-05T09:07:51.636Z,23.26
2022-09-05T09:10:38.076Z,23.19
2022-09-05T09:16:19.353Z,22.95
2022-09-05T09:21:52.330Z,22.79
2022-09-05T09:30:34.700Z,22.75
2022-09-05T09:39:38.759Z,22.67
2022-09-05T09:45:29.026Z,22.50
2022-09-05T09:51:41.454Z,22.45
2022-09-05T09:58:29.348Z,22.16
2022-09-05T10:10:33.100Z,22.23
2022-09-05T10:13:35.666Z,22.55
2022-09-05T10:16:54.940Z,22.48
2022-09-05T10:22:52.482Z,22.96
2022-09-05T10:26:01.950Z,23.09
2022-09-05T10:35:06.907Z,23.41
2022-09-05T10:37:36.385Z,23.80
2022-09-05T10:46:07.191Z,24.73
2022-09-05T10:48:57.886Z,25.06
2022-09-05T10:51:51.907Z,25.28
2022-09-05T10:57:38.328Z,25.42
2022-09-05T11:03:38.518Z,25.85
2022-09-05T11:09:32.648Z,25.91
2022-09-05T11:12:29.683Z,26.14
2022-09-05T11:21:01.785Z,26.59
2022-09-05T11:23:57.104Z,26.40
2022-09-05T11:29:37.367Z,26.61
2022-09-05T11:40:06.173Z,27.04
2022-09-05T11:40:24.004Z,27.08
2022-09-05T11:48:32.864Z,26.86
2022-09-05T11:52:07.566Z,26.78
2022-09-05T11:58:44.227Z,27.08
2022-09-05T12:01:42.419Z,27.11
2022-09-05T12:07:31.491Z,27.60
2022-09-05T12:10:46.475Z,27.73
2022-09-05T12:22:37.171Z,27.50
2022-09-05T12:29:26.251Z,27.67
2022-09-05T12:36:07.081Z,27.45
2022-09-05T12:41:35.166Z,27.33
2022-09-05T12:45:42.153Z,27.44
2022-09-05T12:48:39.384Z,27.51
2022-09-05T12:59:43.411Z,27.34
2022-09-05T13:09:05.092Z,27.38
2022-09-05T13:20:39.238Z,27.50
2022-09-05T13:23:30.309Z,27.46
2022-09-05T13:29:10.470Z,27.85
2022-09-05T13:37:59.037Z,27.73
2022-09-05T13:43:38.155Z,27.77
2022-09-05T13:46:31.242Z,27.80
2022-09-05T13:52:16.898Z,27.78
2022-09-05T13:58:07.923Z,28.14
2022-09-05T14:01:19.555Z,27.86
2022-09-05T14:07:44.793Z,27.78
2022-09-05T14:16:31.580Z,27.77
2022-09-05T14:22:22.267Z,27.74
2022-09-05T14:27:52.421Z,27.44
2022-09-05T14:37:53.651Z,27.52
2022-09-05T14:37:54.128Z,27.54
2022-09-05T14:42:54.677Z,27.53
2022-09-05T14:48:59.813Z,27.61
2022-09-05T14:51:49.720Z,27.64
2022-09-05T15:02:39.546Z,27.68
2022-09-05T15:11:24.029Z,27.78
2022-09-05T15:12:21.743Z,27.67
2022-09-05T15:14:59.213Z,27.88
2022-09-05T15:20:37.764Z,27.63
2022-09-05T15:26:26.619Z,27.75
2022-09-05T15:32:09.059Z,27.52
2022-09-05T15:37:44.890Z,27.62
2022-09-05T15:48:50.086Z,27.65
2022-09-05T15:51:45.534Z,27.34
2022-09-05T16:00:46.151Z,27.41
2022-09-05T16:10:50.848Z,27.33
2022-09-05T16:12:58.435Z,27.22
2022-09-05T16:20:40.992Z,27.06
2022-09-05T16:23:30.262Z,27.03
2022-09-05T16:30:47.839Z,26.93
2022-09-05T16:33:36.459Z,26.80
2022-09-05T16:39:11.535Z,26.85
2022-09-05T16:44:52.595Z,26.89
2022-09-05T16:50:34.814Z,26.75
2022-09-05T16:53:33.304Z,26.69
2022-09-05T16:59:24.103Z,26.56
2022-09-05T17:05:07.983Z,26.49
2022-09-05T17:13:46.204Z,26.39
2022-09-05T17:19:20.466Z,26.27
2022-09-05T17:29:31.432Z,26.13
2022-09-05T17:37:47.210Z,25.51
2022-09-05T17:40:48.388Z,25.51
2022-09-05T17:49:19.393Z,25.20
2022-09-05T17:52:25.286Z,25.20
2022-09-05T17:55:48.181Z,25.06
2022-09-05T17:58:49.674Z,25.06
2022-09-05T18:01:29.644Z,25.08
2022-09-05T18:11:01.649Z,24.81
2022-09-05T18:20:00.265Z,24.41
2022-09-05T18:28:42.740Z,24.28
2022-09-05T18:34:51.921Z,23.87
2022-09-05T18:38:16.444Z,23.74
2022-09-05T18:44:13.300Z,23.57
2022-09-05T18:50:24.210Z,23.64
2022-09-05T18:56:11.054Z,23.35
2022-09-05T19:01:18.022Z,23.15
2022-09-05T19:09:42.854Z,23.31
2022-09-05T19:12:46.543Z,23.30
2022-09-05T19:18:26.509Z,23.10
2022-09-05T19:24:04.080Z,22.91
2022-09-05T19:27:35.821Z,22.74
2022-09-05T19:36:53.009Z,22.53
2022-09-05T19:37:03.123Z,22.54
2022-09-05T19:47:35.282Z,22.68
2022-09-05T19:47:38.166Z,22.67
2022-09-05T19:50:08.830Z,22.33
2022-09-05T19:55:57.873Z,22.29
2022-09-05T20:01:44.013Z,22.35
2022-09-05T20:04:37.678Z,22.28
2022-09-05T20:10:08.061Z,22.33
2022-09-05T20:28:51.514Z,21.98
2022-09-05T20:32:06.608Z,21.89
2022-09-05T20:36:57.914Z,22.12
2022-09-05T20:43:10.967Z,22.13
2022-09-05T20:43:57.851Z,21.98
2022-09-05T20:54:05.000Z,21.91
2022-09-05T20:54:17.179Z,22.06
2022-09-05T20:54:27.970Z,22.06
2022-09-05T20:55:40.368Z,21.81
2022-09-05T21:01:21.835Z,21.68
2022-09-05T21:06:54.599Z,21.59
2022-09-05T21:12:52.593Z,21.63
2022-09-05T21:18:47.481Z,21.59
2022-09-05T21:24:24.121Z,21.53
2022-09-05T21:30:23.059Z,21.55
2022-09-05T21:36:20.855Z,21.43
2022-09-05T21:47:35.074Z,21.34
2022-09-05T21:47:43.207Z,21.16
2022-09-05T21:54:46.012Z,21.25
2022-09-05T21:59:32.837Z,21.17
2022-09-05T22:01:50.773Z,21.22
2022-09-05T22:07:19.479Z,21.12
2022-09-05T22:10:11.595Z,21.06
2022-09-05T22:15:48.848Z,21.39
2022-09-05T22:18:38.803Z,21.10
2022-09-05T22:24:18.984Z,21.11
2022-09-05T22:29:56.123Z,20.84
2022-09-05T22:35:29.933Z,20.84
2022-09-05T22:38:20.242Z,20.91
2022-09-05T22:43:55.420Z,20.75
2022-09-05T22:49:30.507Z,20.89
2022-09-05T22:55:07.442Z,20.93
2022-09-05T23:00:38.128Z,20.60
2022-09-05T23:06:18.966Z,20.55
2022-09-05T23:11:54.375Z,20.46
2022-09-05T23:17:33.016Z,20.44
2022-09-05T23:20:22.430Z,20.38
2022-09-05T23:23:11.589Z,20.39
2022-09-05T23:26:02.467Z,20.37
2022-09-05T23:31:37.262Z,20.48
2022-09-05T23:37:10.850Z,20.30
2022-09-05T23:42:53.321Z,20.24
2022-09-05T23:45:41.822Z,20.07
2022-09-05T23:48:31.112Z,20.10
2022-09-05T23:51:19.886Z,20.15
2022-09-05T23:54:08.545Z,20.17
2022-09-05T23:59:41.522Z,20.14
